Time;durP1;ratioP1;P1;durP2;ratioP2;P2;SDS_P1;SDS_P2;PMS_P1;PMS_P2;Temp;Humidity;BMP_temperature;BMP_pressure;BME280_temperature;BME280_humidity;BME280_pressure;Samples;Min_cycle;Max_cycle;Signal;HPM_P1;HPM_P2
2022/03/28 00:00:30;;;;;;;16.30;12.10;;;;;;;;;;5076101;28;20501;-72
2022/03/28 00:02:58;;;;;;;20.80;11.33;;;;;;;;;;5076096;28;20406;-72
2022/03/28 00:05:24;;;;;;;18.27;12.20;;;;;;;;;;5076052;28;20405;-72
2022/03/28 00:07:52;;;;;;;12.57;11.07;;;;;;;;;;5074633;28;20923;-72
2022/03/28 00:10:19;;;;;;;13.83;10.50;;;;;;;;;;5075915;28;20456;-72
2022/03/28 00:12:45;;;;;;;15.60;9.73;;;;;;;;;;5075912;28;20397;-72
2022/03/28 00:15:11;;;;;;;16.57;11.27;;;;;;;;;;5075768;28;20402;-72
2022/03/28 00:17:38;;;;;;;20.17;11.70;;;;;;;;;;5075862;28;20425;-72
2022/03/28 00:20:05;;;;;;;14.93;11.87;;;;;;;;;;5075025;28;20474;-72
2022/03/28 00:22:31;;;;;;;14.00;10.60;;;;;;;;;;5075652;28;20409;-72
2022/03/28 00:24:57;;;;;;;12.73;9.73;;;;;;;;;;5075648;28;20886;-72
2022/03/28 00:27:23;;;;;;;12.10;9.43;;;;;;;;;;5075501;28;20415;-68
2022/03/28 00:29:49;;;;;;;13.70;10.87;;;;;;;;;;5075557;28;20432;-71
2022/03/28 00:32:15;;;;;;;18.57;9.00;;;;;;;;;;5075529;28;20410;-72
2022/03/28 00:34:41;;;;;;;13.60;10.03;;;;;;;;;;5075468;28;20428;-70
2022/03/28 00:37:07;;;;;;;11.57;9.37;;;;;;;;;;5075439;28;20377;-72
2022/03/28 00:39:33;;;;;;;17.80;12.27;;;;;;;;;;5075159;28;20840;-71
2022/03/28 00:41:59;;;;;;;13.47;10.37;;;;;;;;;;5075297;28;20410;-71
2022/03/28 00:44:25;;;;;;;16.03;10.07;;;;;;;;;;5075258;28;20412;-70
2022/03/28 00:46:51;;;;;;;20.73;11.27;;;;;;;;;;5075215;28;20483;-71
2022/03/28 00:49:17;;;;;;;19.23;11.03;;;;;;;;;;5075159;28;20904;-72
2022/03/28 00:51:43;;;;;;;17.33;12.23;;;;;;;;;;5075103;28;20532;-71
2022/03/28 00:54:09;;;;;;;17.07;10.93;;;;;;;;;;5075101;28;20472;-71
2022/03/28 00:56:37;;;;;;;18.83;12.17;;;;;;;;;;5073936;28;20416;-71
2022/03/28 00:59:04;;;;;;;16.10;12.10;;;;;;;;;;5073665;28;20444;-71
2022/03/28 01:01:30;;;;;;;16.80;12.30;;;;;;;;;;5074930;28;20434;-70
2022/03/28 01:03:56;;;;;;;18.00;11.00;;;;;;;;;;5074832;28;20406;-70
2022/03/28 01:06:23;;;;;;;17.87;11.40;;;;;;;;;;5074916;28;20391;-71
2022/03/28 01:08:49;;;;;;;11.97;10.63;;;;;;;;;;5073456;28;20425;-70
2022/03/28 01:11:18;;;;;;;12.10;10.83;;;;;;;;;;5074666;28;20405;-68
2022/03/28 01:13:45;;;;;;;13.30;10.33;;;;;;;;;;5074681;28;20381;-66
2022/03/28 01:16:11;;;;;;;12.70;10.50;;;;;;;;;;5074626;28;20406;-67
2022/03/28 01:18:37;;;;;;;12.23;10.80;;;;;;;;;;5074508;28;20527;-67
2022/03/28 01:21:04;;;;;;;18.37;10.67;;;;;;;;;;5074456;28;20881;-71
2022/03/28 01:23:30;;;;;;;20.80;10.50;;;;;;;;;;5074477;28;20406;-71
2022/03/28 01:25:57;;;;;;;11.40;10.20;;;;;;;;;;5074674;28;20384;-72
2022/03/28 01:28:24;;;;;;;14.77;11.13;;;;;;;;;;5074606;28;20383;-71
2022/03/28 01:30:50;;;;;;;20.40;13.63;;;;;;;;;;5074172;28;20500;-71
2022/03/28 01:33:16;;;;;;;17.50;11.60;;;;;;;;;;5073537;28;20467;-70
2022/03/28 01:35:43;;;;;;;14.47;11.70;;;;;;;;;;5074183;28;20404;-72
2022/03/28 01:38:13;;;;;;;13.80;12.20;;;;;;;;;;5074401;28;20373;-71
2022/03/28 01:40:41;;;;;;;14.73;11.20;;;;;;;;;;5073957;28;20480;-72
2022/03/28 01:43:08;;;;;;;11.73;10.60;;;;;;;;;;5074139;28;20919;-71
2022/03/28 01:45:34;;;;;;;12.13;10.23;;;;;;;;;;5074040;28;20389;-70
2022/03/28 01:48:00;;;;;;;15.70;10.60;;;;;;;;;;5074061;28;20424;-71
2022/03/28 01:50:26;;;;;;;12.50;9.30;;;;;;;;;;5073928;28;20377;-71
2022/03/28 01:52:52;;;;;;;12.47;9.77;;;;;;;;;;5074300;28;20735;-70
2022/03/28 01:55:19;;;;;;;15.87;9.70;;;;;;;;;;5073912;28;20471;-71
2022/03/28 01:57:45;;;;;;;13.70;10.30;;;;;;;;;;5073858;28;20924;-67
2022/03/28 02:00:15;;;;;;;15.73;10.30;;;;;;;;;;5072740;28;20532;-67
2022/03/28 02:02:42;;;;;;;12.67;9.70;;;;;;;;;;5073874;28;20391;-68
2022/03/28 02:05:11;;;;;;;11.77;9.93;;;;;;;;;;5073757;28;20394;-67
2022/03/28 02:07:37;;;;;;;14.20;11.10;;;;;;;;;;5072482;28;20503;-67
2022/03/28 02:10:03;;;;;;;13.97;10.20;;;;;;;;;;5073722;28;20384;-68
2022/03/28 02:12:29;;;;;;;10.13;9.10;;;;;;;;;;5072390;28;20422;-70
2022/03/28 02:14:55;;;;;;;14.73;10.30;;;;;;;;;;5073539;28;20889;-70
2022/03/28 02:17:22;;;;;;;11.93;10.07;;;;;;;;;;5073621;28;20909;-71
2022/03/28 02:19:48;;;;;;;13.37;10.30;;;;;;;;;;5073552;28;20523;-71
2022/03/28 02:22:14;;;;;;;15.40;10.17;;;;;;;;;;5072236;28;20944;-70
2022/03/28 02:24:40;;;;;;;22.83;11.20;;;;;;;;;;5073529;28;20868;-69
2022/03/28 02:27:07;;;;;;;17.30;10.73;;;;;;;;;;5073725;28;20415;-67
2022/03/28 02:29:33;;;;;;;14.80;11.07;;;;;;;;;;5073450;28;20389;-70
2022/03/28 02:31:59;;;;;;;17.87;10.93;;;;;;;;;;5073693;28;20476;-70
2022/03/28 02:34:25;;;;;;;12.33;10.50;;;;;;;;;;5073290;28;20410;-69
2022/03/28 02:36:51;;;;;;;13.30;10.97;;;;;;;;;;5073373;28;20456;-67
2022/03/28 02:39:17;;;;;;;12.90;10.90;;;;;;;;;;5073274;28;20452;-70
2022/03/28 02:41:43;;;;;;;15.77;11.10;;;;;;;;;;5072008;28;20493;-71
2022/03/28 02:44:09;;;;;;;20.50;11.70;;;;;;;;;;5078517;28;20489;-69
2022/03/28 02:46:36;;;;;;;14.70;10.73;;;;;;;;;;5079925;28;20405;-67
2022/03/28 02:49:03;;;;;;;12.60;10.13;;;;;;;;;;5078762;28;20923;-68
2022/03/28 02:51:29;;;;;;;11.40;10.20;;;;;;;;;;5078678;28;20432;-68
2022/03/28 02:53:55;;;;;;;21.60;11.40;;;;;;;;;;5079944;28;20402;-67
2022/03/28 02:56:21;;;;;;;11.77;10.60;;;;;;;;;;5078616;28;20521;-67
2022/03/28 02:58:48;;;;;;;19.80;11.10;;;;;;;;;;5079779;28;20561;-67
2022/03/28 03:01:14;;;;;;;14.63;10.00;;;;;;;;;;5079812;28;20410;-67
2022/03/28 03:03:40;;;;;;;16.50;10.30;;;;;;;;;;5079790;28;20752;-70
2022/03/28 03:06:07;;;;;;;18.20;10.50;;;;;;;;;;5079790;28;20385;-70
2022/03/28 03:08:33;;;;;;;15.33;11.97;;;;;;;;;;5079995;28;20390;-70
2022/03/28 03:10:59;;;;;;;15.53;11.13;;;;;;;;;;5079845;28;20860;-69
2022/03/28 03:13:25;;;;;;;12.53;10.00;;;;;;;;;;5079699;28;20377;-70
2022/03/28 03:15:51;;;;;;;12.77;10.40;;;;;;;;;;5079668;28;20394;-70
2022/03/28 03:18:17;;;;;;;18.77;10.93;;;;;;;;;;5079626;28;20409;-70
2022/03/28 03:20:43;;;;;;;12.07;10.33;;;;;;;;;;5079634;28;20441;-71
2022/03/28 03:23:09;;;;;;;13.40;10.03;;;;;;;;;;5078340;28;20422;-70
2022/03/28 03:25:35;;;;;;;17.23;10.10;;;;;;;;;;5079589;28;20784;-71
2022/03/28 03:28:01;;;;;;;13.60;10.73;;;;;;;;;;5079647;28;20413;-68
2022/03/28 03:30:27;;;;;;;14.80;11.97;;;;;;;;;;5079532;28;20965;-66
2022/03/28 03:32:53;;;;;;;12.27;10.27;;;;;;;;;;5079562;28;20427;-67
2022/03/28 03:35:19;;;;;;;12.23;10.40;;;;;;;;;;5079541;28;20500;-67
2022/03/28 03:37:45;;;;;;;12.40;10.83;;;;;;;;;;5079532;28;20406;-67
2022/03/28 03:40:14;;;;;;;18.83;12.00;;;;;;;;;;5079262;28;20520;-68
2022/03/28 03:42:41;;;;;;;14.67;10.53;;;;;;;;;;5079416;28;20889;-66
2022/03/28 03:45:07;;;;;;;11.10;9.63;;;;;;;;;;5079443;28;20852;-67
2022/03/28 03:47:33;;;;;;;14.33;11.23;;;;;;;;;;5079418;28;20421;-67
2022/03/28 03:49:59;;;;;;;18.17;13.32;;;;;;;;;;5079506;28;20402;-68
2022/03/28 03:52:25;;;;;;;20.00;15.03;;;;;;;;;;5079346;28;20174;-69
2022/03/28 03:54:51;;;;;;;13.07;10.83;;;;;;;;;;5076928;28;20402;-69
2022/03/28 03:57:17;;;;;;;15.00;10.93;;;;;;;;;;5074795;28;20579;-69
2022/03/28 03:59:43;;;;;;;17.13;14.57;;;;;;;;;;5076289;28;20470;-70
2022/03/28 04:02:09;;;;;;;15.80;12.27;;;;;;;;;;5076070;28;20509;-70
2022/03/28 04:04:35;;;;;;;18.17;12.40;;;;;;;;;;5075964;28;20442;-70
2022/03/28 04:07:01;;;;;;;18.23;12.30;;;;;;;;;;5075928;28;20381;-69
2022/03/28 04:09:28;;;;;;;14.87;11.37;;;;;;;;;;5075846;28;20410;-70
2022/03/28 04:11:54;;;;;;;15.93;10.77;;;;;;;;;;5075842;28;20414;-69
2022/03/28 04:14:20;;;;;;;12.40;10.83;;;;;;;;;;5075850;28;20373;-67
2022/03/28 04:16:46;;;;;;;17.10;10.40;;;;;;;;;;5075827;28;20398;-67
2022/03/28 04:19:13;;;;;;;21.00;10.80;;;;;;;;;;5075685;28;20453;-68
2022/03/28 04:21:39;;;;;;;21.40;11.25;;;;;;;;;;5075981;28;20406;-67
2022/03/28 04:24:05;;;;;;;16.48;11.20;;;;;;;;;;5074310;28;20258;-67
2022/03/28 04:26:31;;;;;;;13.23;10.77;;;;;;;;;;5075511;28;20255;-67
2022/03/28 04:28:57;;;;;;;17.40;11.88;;;;;;;;;;5075569;28;20853;-66
2022/03/28 04:31:23;;;;;;;18.00;11.43;;;;;;;;;;5075578;28;20203;-68
2022/03/28 04:33:49;;;;;;;12.20;10.63;;;;;;;;;;5075461;28;20807;-67
2022/03/28 04:36:15;;;;;;;11.83;10.50;;;;;;;;;;5075433;28;20434;-67
2022/03/28 04:38:41;;;;;;;14.93;12.38;;;;;;;;;;5074983;28;20473;-68
2022/03/28 04:41:07;;;;;;;19.10;12.40;;;;;;;;;;5075265;28;20237;-68
2022/03/28 04:43:32;;;;;;;14.13;11.53;;;;;;;;;;5075254;28;20509;-67
2022/03/28 04:45:58;;;;;;;15.00;11.33;;;;;;;;;;5075198;28;20402;-68
2022/03/28 04:48:24;;;;;;;15.03;12.03;;;;;;;;;;5075189;28;20417;-70
2022/03/28 04:50:51;;;;;;;14.15;11.85;;;;;;;;;;5075172;28;20402;-71
2022/03/28 04:53:17;;;;;;;20.48;12.18;;;;;;;;;;5075089;28;20218;-70
2022/03/28 04:55:43;;;;;;;14.90;11.98;;;;;;;;;;5075036;28;20215;-69
2022/03/28 04:58:09;;;;;;;17.50;13.13;;;;;;;;;;5074971;28;20627;-66
2022/03/28 05:00:35;;;;;;;23.10;12.80;;;;;;;;;;5074914;28;20207;-70
2022/03/28 05:03:02;;;;;;;24.03;13.87;;;;;;;;;;5074885;28;20179;-70
2022/03/28 05:05:28;;;;;;;21.25;12.95;;;;;;;;;;5074823;28;20398;-69
2022/03/28 05:07:54;;;;;;;19.20;12.30;;;;;;;;;;5073433;28;20199;-67
2022/03/28 05:10:20;;;;;;;21.00;13.85;;;;;;;;;;5074729;28;20456;-70
2022/03/28 05:12:45;;;;;;;19.03;13.27;;;;;;;;;;5074566;28;20576;-69
2022/03/28 05:15:12;;;;;;;14.37;12.20;;;;;;;;;;5074606;28;20460;-68
2022/03/28 05:17:38;;;;;;;20.05;13.73;;;;;;;;;;5074612;28;20410;-66
2022/03/28 05:20:05;;;;;;;14.77;12.37;;;;;;;;;;5074495;28;20213;-67
2022/03/28 05:22:31;;;;;;;16.65;12.85;;;;;;;;;;5073216;28;20440;-67
2022/03/28 05:24:58;;;;;;;26.38;13.50;;;;;;;;;;5074686;28;20175;-67
2022/03/28 05:27:24;;;;;;;20.10;12.73;;;;;;;;;;5074403;28;20168;-70
2022/03/28 05:29:50;;;;;;;17.05;13.40;;;;;;;;;;5073072;28;20542;-71
2022/03/28 05:32:16;;;;;;;19.20;13.50;;;;;;;;;;5074257;28;20288;-69
2022/03/28 05:34:42;;;;;;;17.57;12.60;;;;;;;;;;5074213;28;20259;-65
2022/03/28 05:37:13;;;;;;;20.83;13.73;;;;;;;;;;5074289;28;20406;-70
2022/03/28 05:39:39;;;;;;;17.20;13.60;;;;;;;;;;5073710;28;20512;-71
2022/03/28 05:42:07;;;;;;;20.20;13.77;;;;;;;;;;5072851;28;20187;-69
2022/03/28 05:44:33;;;;;;;20.23;13.52;;;;;;;;;;5074117;28;20175;-66
2022/03/28 05:46:59;;;;;;;18.55;12.18;;;;;;;;;;5074034;28;20201;-67
2022/03/28 05:49:25;;;;;;;22.47;12.57;;;;;;;;;;5074085;28;20257;-67
2022/03/28 05:51:52;;;;;;;19.35;13.20;;;;;;;;;;5073844;28;20398;-66
2022/03/28 05:54:18;;;;;;;20.42;12.63;;;;;;;;;;5073957;28;20170;-70
2022/03/28 05:56:44;;;;;;;21.98;12.80;;;;;;;;;;5073783;28;20180;-69
2022/03/28 05:59:10;;;;;;;22.83;13.97;;;;;;;;;;5073789;28;20200;-68
2022/03/28 06:01:36;;;;;;;17.30;12.53;;;;;;;;;;5073836;28;20785;-67
2022/03/28 06:04:03;;;;;;;15.48;12.73;;;;;;;;;;5073768;28;20405;-68
2022/03/28 06:06:29;;;;;;;22.60;13.25;;;;;;;;;;5073696;28;20172;-69
2022/03/28 06:08:55;;;;;;;16.52;13.45;;;;;;;;;;5073675;28;20172;-69
2022/03/28 06:11:22;;;;;;;18.30;13.43;;;;;;;;;;5073609;28;20635;-68
2022/03/28 06:13:48;;;;;;;17.33;13.52;;;;;;;;;;5073953;28;20176;-68
2022/03/28 06:16:14;;;;;;;17.83;12.10;;;;;;;;;;5073554;28;20247;-69
2022/03/28 06:18:40;;;;;;;20.43;14.73;;;;;;;;;;5073012;28;20321;-71
2022/03/28 06:21:07;;;;;;;31.87;13.93;;;;;;;;;;5073394;28;20410;-71
2022/03/28 06:23:33;;;;;;;16.08;13.20;;;;;;;;;;5073542;28;20394;-69
2022/03/28 06:25:59;;;;;;;25.50;13.60;;;;;;;;;;5073514;28;20217;-73
2022/03/28 06:28:25;;;;;;;24.40;14.30;;;;;;;;;;5072270;28;20584;-67
2022/03/28 06:30:51;;;;;;;19.38;14.18;;;;;;;;;;5073321;28;20426;-68
2022/03/28 06:33:17;;;;;;;21.17;14.40;;;;;;;;;;5073361;28;20164;-71
2022/03/28 06:35:45;;;;;;;23.02;14.77;;;;;;;;;;5072238;28;20187;-69
2022/03/28 06:38:11;;;;;;;20.35;14.93;;;;;;;;;;5073404;28;20255;-69
2022/03/28 06:40:37;;;;;;;22.75;14.45;;;;;;;;;;5072981;28;20239;-67
2022/03/28 06:43:03;;;;;;;19.00;13.73;;;;;;;;;;5073282;28;20182;-68
2022/03/28 06:45:29;;;;;;;24.33;15.63;;;;;;;;;;5073277;28;20381;-71
2022/03/28 06:47:56;;;;;;;20.20;15.10;;;;;;;;;;5073215;28;20164;-71
2022/03/28 06:50:24;;;;;;;27.53;16.30;;;;;;;;;;5073328;28;20439;-68
2022/03/28 06:52:50;;;;;;;24.77;15.83;;;;;;;;;;5071970;28;20476;-68
2022/03/28 06:55:17;;;;;;;29.87;15.30;;;;;;;;;;5073144;28;20757;-67
2022/03/28 06:57:43;;;;;;;22.60;15.70;;;;;;;;;;5073035;28;20491;-66
2022/03/28 07:00:13;;;;;;;30.20;17.20;;;;;;;;;;5073099;28;20945;-67
2022/03/28 07:02:39;;;;;;;23.20;16.30;;;;;;;;;;5073235;28;20369;-67
2022/03/28 07:05:06;;;;;;;25.40;17.40;;;;;;;;;;5073121;28;20495;-66
2022/03/28 07:07:45;;;;;;;24.30;17.90;;;;;;;;;;5073126;28;20394;-68
2022/03/28 07:10:12;;;;;;;21.63;17.40;;;;;;;;;;5071794;28;20421;-66
2022/03/28 07:12:39;;;;;;;24.70;16.60;;;;;;;;;;5072973;28;20385;-67
2022/03/28 07:15:06;;;;;;;25.17;16.93;;;;;;;;;;5072981;28;20399;-69
2022/03/28 07:17:33;;;;;;;27.30;17.70;;;;;;;;;;5071661;28;20388;-69
2022/03/28 07:19:59;;;;;;;26.67;18.53;;;;;;;;;;5072929;28;20465;-67
2022/03/28 07:22:25;;;;;;;23.87;18.07;;;;;;;;;;5072935;28;20434;-69
2022/03/28 07:24:51;;;;;;;27.67;17.50;;;;;;;;;;5073275;28;20455;-69
2022/03/28 07:27:17;;;;;;;24.23;17.80;;;;;;;;;;5072882;28;20409;-69
2022/03/28 07:29:43;;;;;;;28.23;18.00;;;;;;;;;;5073259;28;20429;-69
2022/03/28 07:32:09;;;;;;;29.20;18.70;;;;;;;;;;5076676;28;20427;-69
2022/03/28 07:34:38;;;;;;;31.37;19.67;;;;;;;;;;5076583;28;20402;-70
2022/03/28 07:37:09;;;;;;;28.07;19.33;;;;;;;;;;5076657;28;20425;-68
2022/03/28 07:39:37;;;;;;;26.87;19.20;;;;;;;;;;5076471;28;20534;-69
2022/03/28 07:42:04;;;;;;;31.07;17.80;;;;;;;;;;5076462;28;20413;-70
2022/03/28 07:44:30;;;;;;;33.13;19.97;;;;;;;;;;5075193;28;20433;-71
2022/03/28 07:46:56;;;;;;;27.63;19.40;;;;;;;;;;5076387;28;20418;-69
2022/03/28 07:49:24;;;;;;;34.33;19.20;;;;;;;;;;5076596;28;20504;-73
2022/03/28 07:51:50;;;;;;;28.30;17.43;;;;;;;;;;5076665;28;20798;-69
2022/03/28 07:54:16;;;;;;;35.47;17.67;;;;;;;;;;5076536;28;20498;-70
2022/03/28 07:56:42;;;;;;;29.43;17.77;;;;;;;;;;5076170;28;20458;-68
2022/03/28 07:59:08;;;;;;;24.00;17.90;;;;;;;;;;5076129;28;20469;-69
2022/03/28 08:01:34;;;;;;;24.80;18.83;;;;;;;;;;5074834;28;20816;-69
2022/03/28 08:04:01;;;;;;;29.07;20.00;;;;;;;;;;5076135;28;20406;-69
2022/03/28 08:06:27;;;;;;;26.93;20.53;;;;;;;;;;5075993;28;20513;-66
2022/03/28 08:08:53;;;;;;;24.93;18.30;;;;;;;;;;5075926;28;20760;-72
2022/03/28 08:11:19;;;;;;;24.10;17.87;;;;;;;;;;5075891;28;20409;-72
2022/03/28 08:13:45;;;;;;;27.70;18.60;;;;;;;;;;5075881;28;20413;-72
2022/03/28 08:16:12;;;;;;;34.50;22.77;;;;;;;;;;5076182;28;20406;-72
2022/03/28 08:18:41;;;;;;;30.90;17.90;;;;;;;;;;5075687;28;20413;-71
2022/03/28 08:21:07;;;;;;;21.27;17.17;;;;;;;;;;5075713;28;20429;-70
2022/03/28 08:23:32;;;;;;;21.90;17.00;;;;;;;;;;5075644;28;20410;-70
2022/03/28 08:25:59;;;;;;;23.77;17.03;;;;;;;;;;5075701;28;20556;-70
2022/03/28 08:28:26;;;;;;;22.20;16.27;;;;;;;;;;5075606;28;20457;-70
2022/03/28 08:30:52;;;;;;;25.43;16.20;;;;;;;;;;5075639;28;20825;-72
2022/03/28 08:33:18;;;;;;;22.30;16.90;;;;;;;;;;5075482;28;20905;-71
2022/03/28 08:35:44;;;;;;;23.47;17.60;;;;;;;;;;5075384;28;20414;-71
2022/03/28 08:38:10;;;;;;;24.33;17.63;;;;;;;;;;5075381;28;20471;-71
2022/03/28 08:40:36;;;;;;;19.00;16.43;;;;;;;;;;5074641;28;20481;-70
2022/03/28 08:43:04;;;;;;;26.10;18.33;;;;;;;;;;5075415;28;20818;-68
2022/03/28 08:45:31;;;;;;;20.70;16.03;;;;;;;;;;5075219;28;20861;-71
2022/03/28 08:47:58;;;;;;;22.73;16.30;;;;;;;;;;5075227;28;20893;-72
2022/03/28 08:50:24;;;;;;;23.10;16.70;;;;;;;;;;5075314;28;20905;-71
2022/03/28 08:52:50;;;;;;;32.83;17.50;;;;;;;;;;5075150;28;20448;-68
2022/03/28 08:55:17;;;;;;;23.43;16.90;;;;;;;;;;5073848;28;20418;-73
2022/03/28 08:57:43;;;;;;;34.33;17.20;;;;;;;;;;5075096;28;20406;-72
2022/03/28 09:00:10;;;;;;;28.00;18.00;;;;;;;;;;5074946;28;20470;-74
2022/03/28 09:02:42;;;;;;;26.87;17.70;;;;;;;;;;5074823;28;20406;-75
2022/03/28 09:05:09;;;;;;;19.93;17.03;;;;;;;;;;5074881;28;20456;-71
2022/03/28 09:07:35;;;;;;;28.67;17.43;;;;;;;;;;5073529;28;20898;-72
2022/03/28 09:10:02;;;;;;;26.40;18.47;;;;;;;;;;5073462;28;20513;-72
2022/03/28 09:12:28;;;;;;;23.80;18.00;;;;;;;;;;5074734;28;20410;-68
2022/03/28 09:14:59;;;;;;;26.70;17.40;;;;;;;;;;5073395;28;20425;-71
2022/03/28 09:17:25;;;;;;;33.17;18.40;;;;;;;;;;5075051;28;20750;-70
2022/03/28 09:19:54;;;;;;;27.23;18.00;;;;;;;;;;5074854;28;20466;-71
2022/03/28 09:22:23;;;;;;;29.17;18.40;;;;;;;;;;5074682;28;20417;-68
2022/03/28 09:24:49;;;;;;;25.70;16.80;;;;;;;;;;5074649;28;20437;-71
2022/03/28 09:27:17;;;;;;;25.20;17.87;;;;;;;;;;5074525;28;20414;-71
2022/03/28 09:29:53;;;;;;;23.00;17.57;;;;;;;;;;5074758;28;20411;-70
2022/03/28 09:32:21;;;;;;;25.67;18.00;;;;;;;;;;5074230;28;20774;-71
2022/03/28 09:35:01;;;;;;;28.73;18.00;;;;;;;;;;5074392;28;20441;-71
2022/03/28 09:37:28;;;;;;;23.60;16.73;;;;;;;;;;5074221;28;20399;-68
2022/03/28 09:39:54;;;;;;;27.30;16.53;;;;;;;;;;5074014;28;20497;-68
2022/03/28 09:42:20;;;;;;;28.40;18.83;;;;;;;;;;5074076;28;20458;-68
2022/03/28 09:44:49;;;;;;;23.83;17.03;;;;;;;;;;5074101;28;20400;-70
2022/03/28 09:47:19;;;;;;;32.40;17.70;;;;;;;;;;5074356;28;20880;-67
2022/03/28 09:49:46;;;;;;;30.77;16.73;;;;;;;;;;5074000;28;20401;-68
2022/03/28 09:52:14;;;;;;;31.37;15.80;;;;;;;;;;5073533;28;20473;-68
2022/03/28 09:54:50;;;;;;;29.00;18.70;;;;;;;;;;5073718;28;20403;-67
2022/03/28 09:57:18;;;;;;;31.73;16.07;;;;;;;;;;5073919;28;20422;-67
2022/03/28 09:59:44;;;;;;;40.03;17.03;;;;;;;;;;5072447;28;20465;-69
2022/03/28 10:02:18;;;;;;;24.03;17.60;;;;;;;;;;5073886;28;20445;-69
2022/03/28 10:04:49;;;;;;;28.50;18.73;;;;;;;;;;5073773;28;20402;-68
2022/03/28 10:07:15;;;;;;;27.03;17.30;;;;;;;;;;5073729;28;20394;-68
2022/03/28 10:09:41;;;;;;;25.43;16.63;;;;;;;;;;5073564;28;20407;-67
2022/03/28 10:12:07;;;;;;;26.37;17.90;;;;;;;;;;5073663;28;20414;-67
2022/03/28 10:14:34;;;;;;;27.03;16.73;;;;;;;;;;5073576;28;20739;-67
2022/03/28 10:17:04;;;;;;;29.00;17.87;;;;;;;;;;5073796;28;20438;-66
2022/03/28 10:19:34;;;;;;;27.23;16.80;;;;;;;;;;5073458;28;20826;-66
2022/03/28 10:22:02;;;;;;;27.60;17.53;;;;;;;;;;5073477;28;20538;-67
2022/03/28 10:24:33;;;;;;;26.90;16.80;;;;;;;;;;5073515;28;20411;-67
2022/03/28 10:27:00;;;;;;;36.30;17.60;;;;;;;;;;5073417;28;20908;-65
2022/03/28 10:29:34;;;;;;;27.10;16.40;;;;;;;;;;5073498;28;20785;-67
2022/03/28 10:32:01;;;;;;;24.80;19.10;;;;;;;;;;5073722;28;20418;-66
2022/03/28 10:34:39;;;;;;;30.20;17.50;;;;;;;;;;5073355;28;20396;-66
2022/03/28 10:37:24;;;;;;;24.33;18.03;;;;;;;;;;5073448;28;20898;-66
2022/03/28 10:39:51;;;;;;;22.43;16.83;;;;;;;;;;5073061;28;20864;-66
2022/03/28 10:42:26;;;;;;;32.00;18.70;;;;;;;;;;5073329;28;20414;-67
2022/03/28 10:45:04;;;;;;;26.27;17.07;;;;;;;;;;5073643;28;20419;-67
2022/03/28 10:47:40;;;;;;;26.80;17.63;;;;;;;;;;5072024;28;20562;-67
2022/03/28 10:50:08;;;;;;;32.30;18.50;;;;;;;;;;5073356;28;20498;-66
2022/03/28 10:52:35;;;;;;;27.97;18.10;;;;;;;;;;5073137;28;20539;-66
2022/03/28 10:55:08;;;;;;;28.50;19.20;;;;;;;;;;5073310;28;20410;-66
2022/03/28 10:57:36;;;;;;;34.37;18.60;;;;;;;;;;5073190;28;20418;-66
2022/03/28 11:00:06;;;;;;;29.57;20.23;;;;;;;;;;5073097;28;20474;-66
2022/03/28 11:02:33;;;;;;;29.37;18.53;;;;;;;;;;5073218;28;20409;-66
2022/03/28 11:05:14;;;;;;;31.63;19.77;;;;;;;;;;5074441;28;20413;-66
2022/03/28 11:07:40;;;;;;;29.17;18.73;;;;;;;;;;5077196;28;20409;-66
2022/03/28 11:10:10;;;;;;;29.30;18.90;;;;;;;;;;5077080;28;20416;-66
2022/03/28 11:12:40;;;;;;;25.43;19.17;;;;;;;;;;5075891;28;20453;-67
2022/03/28 11:15:12;;;;;;;34.47;19.40;;;;;;;;;;5075751;28;20405;-66
2022/03/28 11:17:38;;;;;;;32.20;19.07;;;;;;;;;;5076930;28;20918;-66
2022/03/28 11:20:07;;;;;;;27.40;19.47;;;;;;;;;;5076857;28;20909;-66
2022/03/28 11:22:39;;;;;;;31.00;20.30;;;;;;;;;;5076796;28;20399;-66
2022/03/28 11:25:25;;;;;;;29.40;18.83;;;;;;;;;;5075600;28;20492;-66
2022/03/28 11:28:01;;;;;;;29.80;19.63;;;;;;;;;;5076586;28;20503;-66
2022/03/28 11:30:27;;;;;;;31.77;19.83;;;;;;;;;;5076658;28;20435;-66
2022/03/28 11:32:54;;;;;;;32.00;21.00;;;;;;;;;;5076701;28;20409;-65
2022/03/28 11:35:20;;;;;;;30.17;20.40;;;;;;;;;;5076687;28;20404;-65
2022/03/28 11:37:48;;;;;;;32.10;20.07;;;;;;;;;;5076596;28;20498;-66
2022/03/28 11:40:14;;;;;;;30.30;19.03;;;;;;;;;;5076361;28;20575;-66
2022/03/28 11:42:45;;;;;;;23.00;18.20;;;;;;;;;;5076445;28;20899;-66
2022/03/28 11:45:12;;;;;;;34.60;20.63;;;;;;;;;;5076444;28;20415;-66
2022/03/28 11:47:39;;;;;;;27.53;17.80;;;;;;;;;;5076297;28;20412;-66
2022/03/28 11:50:07;;;;;;;22.73;17.17;;;;;;;;;;5076264;28;20908;-66
2022/03/28 11:52:34;;;;;;;24.13;17.83;;;;;;;;;;5076599;28;20426;-66
2022/03/28 11:55:00;;;;;;;25.47;15.87;;;;;;;;;;5076246;28;20475;-66
2022/03/28 12:00:17;;;;;;;18.13;14.77;;;;;;;;;;5076130;28;20465;-66
2022/03/28 12:02:46;;;;;;;21.43;16.33;;;;;;;;;;5076067;28;20403;-66
2022/03/28 12:05:12;;;;;;;19.10;15.50;;;;;;;;;;5076207;28;20437;-66
2022/03/28 12:07:40;;;;;;;19.63;15.87;;;;;;;;;;5076049;28;20405;-66
2022/03/28 12:10:08;;;;;;;18.77;14.13;;;;;;;;;;5075966;28;20897;-66
2022/03/28 12:12:34;;;;;;;18.53;14.20;;;;;;;;;;5075967;28;20464;-66
2022/03/28 12:15:00;;;;;;;15.60;14.10;;;;;;;;;;5075783;28;20410;-66
2022/03/28 12:17:27;;;;;;;19.10;14.53;;;;;;;;;;5075203;28;20418;-66
2022/03/28 12:20:00;;;;;;;16.17;13.63;;;;;;;;;;5075728;28;20577;-66
2022/03/28 12:22:26;;;;;;;13.97;12.67;;;;;;;;;;5075775;28;20416;-67
2022/03/28 12:24:53;;;;;;;19.23;12.90;;;;;;;;;;5075742;28;20920;-66
2022/03/28 12:27:20;;;;;;;16.63;13.40;;;;;;;;;;5075649;28;20410;-66
2022/03/28 12:29:46;;;;;;;23.10;13.90;;;;;;;;;;5075682;28;20901;-66
2022/03/28 12:32:16;;;;;;;16.03;14.33;;;;;;;;;;5075628;28;20414;-66
2022/03/28 12:34:42;;;;;;;17.43;14.60;;;;;;;;;;5075831;28;20434;-66
2022/03/28 12:37:08;;;;;;;18.33;14.50;;;;;;;;;;5075487;28;20395;-66
2022/03/28 12:39:34;;;;;;;15.73;13.57;;;;;;;;;;5075205;28;20522;-66
2022/03/28 12:42:02;;;;;;;12.87;10.70;;;;;;;;;;5075632;28;20457;-66
2022/03/28 12:44:28;;;;;;;16.30;11.93;;;;;;;;;;5075324;28;20414;-66
2022/03/28 12:47:04;;;;;;;18.50;12.47;;;;;;;;;;5075193;28;20805;-66
2022/03/28 12:49:39;;;;;;;18.77;13.10;;;;;;;;;;5074999;28;20901;-66
2022/03/28 12:52:09;;;;;;;16.73;13.80;;;;;;;;;;5075252;28;20413;-66
2022/03/28 12:54:35;;;;;;;16.60;13.57;;;;;;;;;;5075174;28;20420;-66
2022/03/28 12:57:02;;;;;;;14.10;12.60;;;;;;;;;;5075336;28;20421;-66
2022/03/28 12:59:29;;;;;;;13.43;12.03;;;;;;;;;;5073708;28;20956;-66
2022/03/28 13:02:25;;;;;;;18.97;14.40;;;;;;;;;;5075079;28;20503;-66
2022/03/28 13:04:56;;;;;;;18.70;13.80;;;;;;;;;;5062294;28;20531;-66
2022/03/28 13:07:27;;;;;;;21.10;14.40;;;;;;;;;;5074983;28;20407;-66
2022/03/28 13:09:56;;;;;;;14.20;11.97;;;;;;;;;;5074851;28;20452;-66
2022/03/28 13:12:35;;;;;;;15.40;12.70;;;;;;;;;;5075027;28;20406;-66
2022/03/28 13:15:01;;;;;;;14.20;12.33;;;;;;;;;;5074973;28;20401;-66
2022/03/28 13:17:27;;;;;;;17.23;12.97;;;;;;;;;;5074644;28;20433;-66
2022/03/28 13:20:00;;;;;;;20.13;12.70;;;;;;;;;;5074582;28;20699;-66
2022/03/28 13:22:27;;;;;;;18.30;12.73;;;;;;;;;;5074592;28;20813;-66
2022/03/28 13:25:06;;;;;;;12.93;11.63;;;;;;;;;;5074564;28;20406;-66
2022/03/28 13:30:18;;;;;;;16.33;11.90;;;;;;;;;;5074395;28;20430;-66
2022/03/28 13:32:44;;;;;;;15.73;13.60;;;;;;;;;;5074371;28;20546;-66
2022/03/28 13:35:10;;;;;;;15.60;13.13;;;;;;;;;;5074240;28;20868;-66
2022/03/28 13:37:36;;;;;;;14.87;13.33;;;;;;;;;;5074293;28;20412;-66
2022/03/28 13:40:02;;;;;;;13.93;12.07;;;;;;;;;;5074033;28;20484;-67
2022/03/28 13:42:28;;;;;;;14.40;12.80;;;;;;;;;;5074196;28;20433;-67
2022/03/28 13:44:54;;;;;;;19.23;12.70;;;;;;;;;;5074090;28;20889;-67
2022/03/28 13:47:20;;;;;;;16.57;12.40;;;;;;;;;;5074078;28;20418;-66
2022/03/28 13:49:46;;;;;;;13.87;12.57;;;;;;;;;;5073972;28;20450;-66
2022/03/28 13:52:12;;;;;;;16.90;12.37;;;;;;;;;;5074028;28;20438;-66
2022/03/28 13:54:38;;;;;;;14.97;12.97;;;;;;;;;;5073978;28;20951;-66
2022/03/28 13:57:04;;;;;;;26.03;12.80;;;;;;;;;;5072824;28;20460;-66
2022/03/28 13:59:30;;;;;;;16.73;14.20;;;;;;;;;;5073886;28;20455;-66
2022/03/28 14:01:56;;;;;;;18.40;15.63;;;;;;;;;;5073973;28;20453;-66
2022/03/28 14:04:23;;;;;;;12.67;11.37;;;;;;;;;;5074228;28;20394;-66
2022/03/28 14:06:49;;;;;;;12.70;11.40;;;;;;;;;;5073928;28;20405;-66
2022/03/28 14:09:17;;;;;;;14.87;11.27;;;;;;;;;;5073851;28;20505;-66
2022/03/28 14:11:43;;;;;;;12.80;11.60;;;;;;;;;;5073668;28;20819;-66
2022/03/28 14:14:09;;;;;;;14.27;12.07;;;;;;;;;;5073777;28;20437;-66
2022/03/28 14:16:35;;;;;;;13.27;11.33;;;;;;;;;;5073633;28;20408;-66
2022/03/28 14:19:01;;;;;;;12.30;11.03;;;;;;;;;;5073427;28;20462;-66
2022/03/28 14:21:27;;;;;;;13.00;10.73;;;;;;;;;;5073591;28;20425;-66
2022/03/28 14:23:53;;;;;;;12.67;11.47;;;;;;;;;;5073530;28;20400;-66